Time;durP1;ratioP1;P1;durP2;ratioP2;P2;SDS_P1;SDS_P2;PMS_P1;PMS_P2;Temp;Humidity;BMP_temperature;BMP_pressure;BME280_temperature;BME280_humidity;BME280_pressure;Samples;Min_cycle;Max_cycle;Signal;HPM_P1;HPM_P2
2022/09/26 00:01:07;;;;;;;33.50;23.40;;;;;;;7.99;100.00;98647.45;101043;1336;24459;-36
2022/09/26 00:03:33;;;;;;;39.40;28.70;;;;;;;8.01;100.00;98637.79;101072;1336;23211;-33
2022/09/26 00:06:01;;;;;;;15.30;11.80;;;;;;;8.02;100.00;98632.27;101003;1336;22887;-34
2022/09/26 00:08:27;;;;;;;21.30;14.50;;;;;;;8.03;100.00;98628.49;101036;1328;23243;-36
2022/09/26 00:10:57;;;;;;;33.30;22.40;;;;;;;8.03;100.00;98629.84;101068;1327;24789;-36
2022/09/26 00:13:24;;;;;;;44.30;28.30;;;;;;;8.00;100.00;98639.14;100897;1331;22722;-33
2022/09/26 00:15:49;;;;;;;27.20;20.00;;;;;;;7.96;100.00;98634.52;101102;1328;24390;-36
2022/09/26 00:18:15;;;;;;;29.90;19.50;;;;;;;7.93;100.00;98626.64;101112;1334;22914;-33
2022/09/26 00:20:41;;;;;;;30.70;21.80;;;;;;;7.92;100.00;98622.44;101106;1334;24305;-34
2022/09/26 00:23:06;;;;;;;20.60;13.00;;;;;;;7.91;100.00;98623.00;100901;1331;23023;-36
2022/09/26 00:25:32;;;;;;;22.10;15.10;;;;;;;7.90;100.00;98619.75;100910;1336;23117;-38
2022/09/26 00:27:58;;;;;;;20.60;13.80;;;;;;;7.89;100.00;98621.93;101150;1336;24315;-36
2022/09/26 00:30:23;;;;;;;15.90;12.30;;;;;;;7.91;100.00;98620.83;100914;1328;22754;-35
2022/09/26 00:32:49;;;;;;;20.10;16.60;;;;;;;7.90;100.00;98623.49;101122;1336;23217;-33
2022/09/26 00:35:15;;;;;;;22.20;14.40;;;;;;;7.89;100.00;98618.02;101141;1336;23058;-36
2022/09/26 00:37:40;;;;;;;22.40;15.80;;;;;;;7.87;100.00;98614.39;101089;1327;23106;-32
2022/09/26 00:40:07;;;;;;;14.70;11.20;;;;;;;7.86;100.00;98604.55;101063;1331;23135;-33
2022/09/26 00:42:32;;;;;;;7.40;6.70;;;;;;;7.84;100.00;98603.77;100951;1336;22865;-36
2022/09/26 00:44:58;;;;;;;23.40;15.30;;;;;;;7.83;100.00;98598.09;101090;1334;24379;-33
2022/09/26 00:47:25;;;;;;;22.10;13.10;;;;;;;7.80;100.00;98594.45;101120;1327;22755;-36
2022/09/26 00:49:55;;;;;;;16.40;14.00;;;;;;;7.78;100.00;98591.48;101109;1334;23081;-37
2022/09/26 00:52:25;;;;;;;11.50;8.40;;;;;;;7.78;100.00;98590.52;100791;1328;457308;-32
2022/09/26 00:54:51;;;;;;;18.60;14.70;;;;;;;7.74;100.00;98591.51;101095;1334;22754;-33
2022/09/26 00:57:21;;;;;;;22.20;15.10;;;;;;;7.72;100.00;98589.48;101094;1334;24400;-32
2022/09/26 00:59:49;;;;;;;22.20;15.50;;;;;;;7.73;100.00;98587.59;101104;1318;23096;-35
2022/09/26 01:02:15;;;;;;;12.70;10.40;;;;;;;7.76;100.00;98593.48;101090;1327;23073;-35
2022/09/26 01:04:41;;;;;;;14.80;10.80;;;;;;;7.78;100.00;98594.40;101076;1334;24372;-32
2022/09/26 01:07:11;;;;;;;21.50;15.90;;;;;;;7.81;100.00;98597.58;100899;1336;24473;-35
2022/09/26 01:09:36;;;;;;;15.30;11.40;;;;;;;7.83;100.00;98594.46;101079;1336;24373;-32
2022/09/26 01:12:03;;;;;;;11.30;9.10;;;;;;;7.85;100.00;98597.90;101018;1334;24432;-35
2022/09/26 01:14:29;;;;;;;15.50;12.70;;;;;;;7.86;100.00;98596.86;101017;1334;22853;-34
2022/09/26 01:16:54;;;;;;;17.00;13.20;;;;;;;7.88;100.00;98593.66;101028;1328;22744;-34
2022/09/26 01:19:24;;;;;;;25.60;13.40;;;;;;;7.86;100.00;98590.62;101047;1334;23080;-33
2022/09/26 01:22:05;;;;;;;19.40;15.50;;;;;;;7.86;100.00;98586.22;101033;1334;22886;-33
2022/09/26 01:24:39;;;;;;;26.80;14.50;;;;;;;7.86;100.00;98578.28;101094;1334;23081;-36
2022/09/26 01:27:09;;;;;;;11.50;9.50;;;;;;;7.86;100.00;98578.03;101062;1334;24360;-36
2022/09/26 01:29:38;;;;;;;25.80;17.10;;;;;;;7.86;100.00;98581.04;101038;1331;24619;-33
2022/09/26 01:35:03;;;;;;;20.10;11.30;;;;;;;7.81;100.00;98581.17;101039;1336;22528;-33
2022/09/26 01:37:35;;;;;;;19.30;14.60;;;;;;;7.77;100.00;98580.50;101039;1331;22758;-36
2022/09/26 01:40:09;;;;;;;30.10;19.90;;;;;;;7.71;100.00;98579.48;101106;1318;24603;-35
2022/09/26 01:42:38;;;;;;;17.60;13.70;;;;;;;7.65;100.00;98570.28;101060;1334;22703;-37
2022/09/26 01:45:10;;;;;;;22.40;14.10;;;;;;;7.60;100.00;98567.67;101183;1328;22744;-33
2022/09/26 01:47:41;;;;;;;25.90;17.30;;;;;;;7.59;100.00;98568.65;101018;1334;22566;-35
2022/09/26 01:50:15;;;;;;;22.20;15.80;;;;;;;7.59;100.00;98564.61;101125;1328;22732;-37
2022/09/26 01:52:48;;;;;;;25.60;16.20;;;;;;;7.59;100.00;98563.76;101049;1334;23095;-33
2022/09/26 01:55:17;;;;;;;21.00;16.30;;;;;;;7.60;100.00;98564.30;101074;1329;24550;-33
2022/09/26 01:57:46;;;;;;;29.60;20.40;;;;;;;7.60;100.00;98567.73;101100;1339;24370;-36
2022/09/26 02:00:12;;;;;;;29.20;19.10;;;;;;;7.60;100.00;98559.53;101015;1328;24468;-33
2022/09/26 02:02:41;;;;;;;21.90;16.10;;;;;;;7.62;100.00;98560.13;101050;1327;22934;-36
2022/09/26 02:05:11;;;;;;;28.90;17.90;;;;;;;7.66;100.00;98555.70;101039;1331;22707;-36
2022/09/26 02:07:39;;;;;;;28.90;20.40;;;;;;;7.70;100.00;98556.00;101026;1328;23210;-36
2022/09/26 02:10:08;;;;;;;6.30;5.20;;;;;;;7.76;100.00;98560.84;101080;1328;22708;-36
2022/09/26 02:12:35;;;;;;;18.60;13.10;;;;;;;7.83;100.00;98562.52;101013;1338;22742;-33
2022/09/26 02:15:04;;;;;;;21.00;14.70;;;;;;;7.90;100.00;98560.52;101038;1337;22869;-34
2022/09/26 02:17:32;;;;;;;20.60;15.60;;;;;;;7.94;100.00;98559.67;100918;1328;22881;-36
2022/09/26 02:20:00;;;;;;;14.80;10.20;;;;;;;7.97;100.00;98554.84;100888;1342;22696;-38
2022/09/26 02:22:29;;;;;;;23.40;18.70;;;;;;;8.00;100.00;98559.28;101116;1339;22616;-37
2022/09/26 02:24:54;;;;;;;25.30;17.90;;;;;;;8.03;100.00;98558.06;101066;1331;24434;-34
2022/09/26 02:27:20;;;;;;;19.90;14.50;;;;;;;8.03;100.00;98546.70;101014;1335;24401;-33
2022/09/26 02:29:45;;;;;;;26.30;16.40;;;;;;;8.07;100.00;98541.66;101041;1338;24597;-33
2022/09/26 02:32:14;;;;;;;20.30;16.80;;;;;;;8.09;100.00;98538.13;101040;1334;22869;-36
2022/09/26 02:34:41;;;;;;;25.00;18.40;;;;;;;8.08;100.00;98536.04;101108;1314;22501;-36
2022/09/26 02:37:07;;;;;;;25.00;16.80;;;;;;;8.09;100.00;98539.04;101066;1331;24353;-34
2022/09/26 02:39:32;;;;;;;33.30;19.60;;;;;;;8.12;100.00;98535.13;101007;1328;22894;-37
2022/09/26 02:42:06;;;;;;;24.10;17.10;;;;;;;8.13;100.00;98534.23;101029;1321;22879;-34
2022/09/26 02:44:40;;;;;;;27.50;18.50;;;;;;;8.14;100.00;98533.49;101084;1334;25245;-38
2022/09/26 02:47:13;;;;;;;44.50;34.00;;;;;;;8.17;100.00;98526.21;101019;1327;22778;-33
2022/09/26 02:49:44;;;;;;;21.20;11.00;;;;;;;8.20;100.00;98526.84;101064;1339;22492;-38
2022/09/26 02:52:19;;;;;;;20.60;14.80;;;;;;;8.23;100.00;98526.73;100896;1339;22510;-33
2022/09/26 02:54:53;;;;;;;23.70;18.10;;;;;;;8.27;100.00;98522.77;101011;1328;22765;-35
2022/09/26 02:57:23;;;;;;;34.90;23.00;;;;;;;8.32;100.00;98529.66;101098;1325;23097;-34
2022/09/26 02:59:56;;;;;;;24.80;16.60;;;;;;;8.35;100.00;98527.86;100901;1339;23084;-32
2022/09/26 03:02:26;;;;;;;20.20;14.60;;;;;;;8.40;100.00;98528.71;101063;1331;23207;-32
2022/09/26 03:04:55;;;;;;;23.30;13.90;;;;;;;8.44;100.00;98527.73;101042;1334;24327;-36
2022/09/26 03:07:26;;;;;;;25.40;18.90;;;;;;;8.45;100.00;98520.70;101091;1339;22563;-33
2022/09/26 03:09:51;;;;;;;16.10;11.70;;;;;;;8.49;100.00;98521.15;101102;1339;25242;-38
2022/09/26 03:12:17;;;;;;;28.50;18.30;;;;;;;8.54;100.00;98519.76;101057;1339;24380;-36
2022/09/26 03:14:43;;;;;;;20.50;14.80;;;;;;;8.59;100.00;98521.11;100839;1334;24246;-35
2022/09/26 03:17:09;;;;;;;25.70;17.90;;;;;;;8.62;100.00;98521.45;101089;1328;23115;-35
2022/09/26 03:19:38;;;;;;;22.20;15.60;;;;;;;8.65;100.00;98520.20;101066;1339;24373;-36
2022/09/26 03:22:04;;;;;;;21.40;14.40;;;;;;;8.66;100.00;98514.70;100902;1339;24373;-33
2022/09/26 03:24:30;;;;;;;23.90;17.00;;;;;;;8.68;100.00;98510.95;101060;1339;24491;-34
2022/09/26 03:26:56;;;;;;;23.10;15.90;;;;;;;8.69;100.00;98508.14;101090;1333;23096;-36
2022/09/26 03:29:22;;;;;;;24.30;16.20;;;;;;;8.70;100.00;98504.31;100837;1338;22883;-36
2022/09/26 03:31:49;;;;;;;24.00;14.50;;;;;;;8.72;100.00;98501.27;101075;1325;24383;-34
2022/09/26 03:34:15;;;;;;;20.80;13.30;;;;;;;8.73;100.00;98501.52;101066;1337;22754;-34
2022/09/26 03:36:41;;;;;;;19.50;14.50;;;;;;;8.73;100.00;98498.02;101065;1336;23241;-37
2022/09/26 03:39:07;;;;;;;25.90;18.60;;;;;;;8.74;100.00;98497.39;101060;1324;22923;-33
2022/09/26 03:41:33;;;;;;;18.00;12.20;;;;;;;8.74;100.00;98494.47;101048;1334;24478;-33
2022/09/26 03:43:59;;;;;;;18.00;13.70;;;;;;;8.76;100.00;98493.09;100939;1339;23003;-37
2022/09/26 03:46:24;;;;;;;21.00;15.70;;;;;;;8.78;100.00;98490.10;101094;1339;22759;-34
2022/09/26 03:48:51;;;;;;;19.20;15.40;;;;;;;8.81;100.00;98485.61;100822;1336;22747;-32
2022/09/26 03:51:17;;;;;;;25.10;17.60;;;;;;;8.82;100.00;98478.86;101065;1331;23218;-33
2022/09/26 03:53:44;;;;;;;6.50;5.80;;;;;;;8.83;100.00;98478.08;101022;1328;23096;-33
2022/09/26 03:56:12;;;;;;;18.50;15.20;;;;;;;8.84;100.00;98479.54;101040;1339;22887;-33
2022/09/26 03:58:37;;;;;;;18.60;9.80;;;;;;;8.84;100.00;98477.54;100827;1331;22731;-33
2022/09/26 04:01:06;;;;;;;15.50;10.50;;;;;;;8.84;100.00;98479.60;101081;1334;24340;-33
2022/09/26 04:03:34;;;;;;;16.30;12.90;;;;;;;8.84;100.00;98482.27;101090;1334;25335;-36
2022/09/26 04:06:00;;;;;;;19.70;11.30;;;;;;;8.87;100.00;98482.96;101068;1336;24355;-35
2022/09/26 04:08:25;;;;;;;8.70;5.20;;;;;;;8.88;100.00;98482.23;100793;1336;24446;-33
2022/09/26 04:10:51;;;;;;;13.60;10.30;;;;;;;8.91;100.00;98479.46;100840;1339;23869;-35
2022/09/26 04:13:17;;;;;;;23.80;10.20;;;;;;;8.94;100.00;98477.39;100884;1333;22895;-33
2022/09/26 04:15:42;;;;;;;23.70;16.20;;;;;;;8.95;100.00;98476.20;101093;1339;24307;-35
2022/09/26 04:18:08;;;;;;;24.10;16.30;;;;;;;8.96;100.00;98475.01;101067;1339;23178;-36
2022/09/26 04:20:34;;;;;;;24.90;17.00;;;;;;;8.98;100.00;98470.92;101060;1339;23314;-36
2022/09/26 04:23:00;;;;;;;12.20;8.60;;;;;;;8.99;100.00;98467.61;101096;1339;24304;-33
2022/09/26 04:25:26;;;;;;;13.40;10.20;;;;;;;9.03;100.00;98464.58;100934;1339;23217;-33
2022/09/26 04:27:52;;;;;;;14.90;11.60;;;;;;;9.05;100.00;98462.49;101095;1334;23217;-35
2022/09/26 04:30:18;;;;;;;14.00;10.60;;;;;;;9.06;100.00;98461.30;101073;1328;22885;-33
2022/09/26 04:32:43;;;;;;;9.90;8.40;;;;;;;9.06;100.00;98459.77;101087;1339;22878;-36
2022/09/26 04:35:09;;;;;;;16.60;10.50;;;;;;;9.07;100.00;98458.45;101079;1339;23337;-32
2022/09/26 04:37:35;;;;;;;14.60;12.80;;;;;;;9.07;100.00;98456.98;101042;1327;22865;-35
2022/09/26 04:40:03;;;;;;;20.40;14.00;;;;;;;9.06;100.00;98459.86;101052;1334;24367;-33
2022/09/26 04:42:33;;;;;;;14.30;10.80;;;;;;;9.04;100.00;98457.60;101027;1338;22727;-33
2022/09/26 04:44:58;;;;;;;6.60;5.40;;;;;;;9.03;100.00;98459.58;101076;1336;22921;-34
2022/09/26 04:47:24;;;;;;;21.50;15.80;;;;;;;8.99;100.00;98463.95;100854;1336;22708;-34
2022/09/26 04:49:50;;;;;;;20.50;14.10;;;;;;;8.97;100.00;98463.95;101073;1331;22891;-34
2022/09/26 04:52:16;;;;;;;20.50;13.50;;;;;;;8.94;100.00;98461.62;101026;1335;24362;-35
2022/09/26 04:54:42;;;;;;;20.60;13.90;;;;;;;8.90;100.00;98458.58;101067;1328;24295;-36
2022/09/26 04:57:08;;;;;;;19.60;14.70;;;;;;;8.87;100.00;98467.11;101046;1328;24477;-37
2022/09/26 04:59:34;;;;;;;30.60;20.00;;;;;;;8.83;100.00;98468.05;101086;1335;24353;-36
2022/09/26 05:02:02;;;;;;;25.20;16.50;;;;;;;8.82;100.00;98468.15;101034;1339;23078;-37
2022/09/26 05:04:30;;;;;;;27.00;17.10;;;;;;;8.80;100.00;98468.89;100926;1332;23084;-36
2022/09/26 05:06:58;;;;;;;25.30;17.90;;;;;;;8.81;100.00;98467.94;100856;1328;24353;-36
2022/09/26 05:09:24;;;;;;;26.80;17.10;;;;;;;8.81;100.00;98470.89;101055;1339;23337;-35
2022/09/26 05:11:49;;;;;;;20.70;17.40;;;;;;;8.84;100.00;98468.19;101098;1331;23175;-35
2022/09/26 05:14:15;;;;;;;24.80;18.40;;;;;;;8.86;100.00;98468.48;101082;1336;23107;-35
2022/09/26 05:16:40;;;;;;;28.60;19.90;;;;;;;8.88;100.00;98475.34;101076;1328;23176;-33
2022/09/26 05:19:07;;;;;;;25.30;17.80;;;;;;;8.89;100.00;98470.40;101045;1334;22749;-32
2022/09/26 05:21:33;;;;;;;23.10;16.90;;;;;;;8.90;100.00;98464.88;101012;1328;22741;-35
2022/09/26 05:26:36;;;;;;;17.20;11.80;;;;;;;8.95;100.00;98458.11;101100;1336;22869;-37
2022/09/26 05:29:03;;;;;;;24.20;16.20;;;;;;;8.99;100.00;98456.30;101136;1326;22644;-33
2022/09/26 05:31:31;;;;;;;15.10;12.40;;;;;;;9.04;100.00;98461.77;100963;1336;24275;-36
2022/09/26 05:33:57;;;;;;;26.20;15.70;;;;;;;9.09;100.00;98462.08;100928;1336;22492;-36
2022/09/26 05:36:24;;;;;;;19.40;14.20;;;;;;;9.13;100.00;98455.69;100912;1335;24313;-33
2022/09/26 05:38:50;;;;;;;16.00;11.60;;;;;;;9.16;100.00;98452.13;100961;1333;22904;-35
2022/09/26 05:41:16;;;;;;;13.80;11.50;;;;;;;9.16;100.00;98452.70;101097;1334;22739;-36
2022/09/26 05:43:41;;;;;;;16.80;12.60;;;;;;;9.21;100.00;98456.48;101116;1331;22881;-38
2022/09/26 05:46:09;;;;;;;25.40;18.10;;;;;;;9.27;100.00;98456.92;101059;1336;23207;-33
2022/09/26 05:48:35;;;;;;;22.90;16.70;;;;;;;9.30;100.00;98452.08;100907;1336;22518;-33
2022/09/26 05:51:03;;;;;;;19.80;14.70;;;;;;;9.33;100.00;98455.01;101102;1327;25230;-36
2022/09/26 05:53:31;;;;;;;23.90;18.60;;;;;;;9.39;100.00;98452.72;101166;1331;25226;-36
2022/09/26 05:55:56;;;;;;;27.90;15.90;;;;;;;9.46;100.00;98448.80;100902;1336;22508;-33
2022/09/26 05:58:22;;;;;;;33.00;20.10;;;;;;;9.55;100.00;98450.16;101054;1328;26498;-34
2022/09/26 06:00:48;;;;;;;17.70;14.20;;;;;;;9.67;100.00;98448.75;101068;1336;22885;-33
2022/09/26 06:03:14;;;;;;;26.20;16.40;;;;;;;9.76;100.00;98450.15;100927;1336;22747;-36
2022/09/26 06:05:41;;;;;;;13.50;11.90;;;;;;;9.84;100.00;98446.88;100919;1330;22738;-34
2022/09/26 06:08:07;;;;;;;15.40;13.00;;;;;;;9.91;100.00;98449.69;100932;1327;22755;-33
2022/09/26 06:10:34;;;;;;;19.60;13.90;;;;;;;10.00;100.00;98450.67;100898;1336;22502;-34
2022/09/26 06:13:01;;;;;;;28.00;15.80;;;;;;;10.11;100.00;98454.89;100834;1336;22725;-36
2022/09/26 06:15:28;;;;;;;20.40;15.90;;;;;;;10.24;100.00;98457.53;100910;1331;25388;-36
2022/09/26 06:17:58;;;;;;;21.90;17.40;;;;;;;10.33;100.00;98452.21;100954;1336;24434;-36
2022/09/26 06:20:24;;;;;;;20.50;16.10;;;;;;;10.45;100.00;98451.53;101077;1334;23220;-38
2022/09/26 06:22:50;;;;;;;19.70;16.20;;;;;;;10.58;100.00;98450.23;100799;1336;22748;-36
2022/09/26 06:25:15;;;;;;;9.50;8.50;;;;;;;10.68;100.00;98448.79;101067;1328;23041;-32
2022/09/26 06:27:43;;;;;;;26.60;16.90;;;;;;;10.78;100.00;98455.76;100926;1336;23090;-33
2022/09/26 06:30:10;;;;;;;19.90;16.30;;;;;;;10.86;100.00;98451.88;101037;1328;23056;-33
2022/09/26 06:32:38;;;;;;;22.60;18.70;;;;;;;10.95;100.00;98454.67;100976;1330;22764;-36
2022/09/26 06:35:05;;;;;;;24.30;18.50;;;;;;;11.06;100.00;98456.05;100931;1336;24401;-33
2022/09/26 06:37:31;;;;;;;23.90;14.20;;;;;;;11.16;100.00;98453.75;101081;1328;22519;-36
2022/09/26 06:39:56;;;;;;;25.40;16.00;;;;;;;11.20;100.00;98449.83;101113;1334;23207;-33
2022/09/26 06:42:24;;;;;;;16.30;12.40;;;;;;;11.19;100.00;98445.16;101051;1335;22754;-36
2022/09/26 06:44:50;;;;;;;22.20;15.90;;;;;;;11.32;100.00;98444.20;100931;1328;23221;-36
2022/09/26 06:47:16;;;;;;;21.20;14.40;;;;;;;11.39;100.00;98440.88;101091;1334;22572;-36
2022/09/26 06:49:45;;;;;;;17.90;11.60;;;;;;;11.46;100.00;98442.77;101042;1336;22869;-33
2022/09/26 06:52:10;;;;;;;18.60;13.10;;;;;;;11.63;100.00;98441.17;101112;1328;23229;-36
2022/09/26 06:54:36;;;;;;;26.20;16.60;;;;;;;11.79;100.00;98433.75;101058;1334;23207;-34
2022/09/26 06:57:02;;;;;;;15.90;13.70;;;;;;;11.91;100.00;98432.86;100885;1333;24487;-33
2022/09/26 06:59:27;;;;;;;29.60;18.90;;;;;;;12.07;100.00;98434.83;101036;1328;24283;-33
2022/09/26 07:01:53;;;;;;;17.30;13.20;;;;;;;12.15;100.00;98435.27;101053;1328;24747;-33
2022/09/26 07:04:19;;;;;;;22.30;14.10;;;;;;;12.30;100.00;98438.80;101084;1334;22868;-36
2022/09/26 07:06:44;;;;;;;15.90;11.80;;;;;;;12.39;100.00;98438.27;101059;1329;22738;-33
2022/09/26 07:09:10;;;;;;;17.30;9.40;;;;;;;12.59;100.00;98444.26;101091;1328;22738;-36
2022/09/26 07:11:36;;;;;;;14.10;11.60;;;;;;;12.94;100.00;98438.33;101061;1328;22741;-33
2022/09/26 07:14:02;;;;;;;17.60;12.70;;;;;;;13.17;100.00;98426.05;101051;1334;22869;-33
2022/09/26 07:16:28;;;;;;;10.80;7.70;;;;;;;13.39;100.00;98422.65;101043;1336;24348;-34
2022/09/26 07:18:54;;;;;;;12.80;10.70;;;;;;;13.58;100.00;98419.64;101030;1334;22741;-33
2022/09/26 07:21:19;;;;;;;11.10;8.90;;;;;;;13.78;100.00;98415.16;101083;1328;22898;-38
2022/09/26 07:23:45;;;;;;;10.60;9.40;;;;;;;13.95;100.00;98413.31;101081;1328;23011;-36
2022/09/26 07:26:10;;;;;;;9.60;7.80;;;;;;;14.13;100.00;98409.79;101057;1334;22971;-34
2022/09/26 07:28:37;;;;;;;8.30;7.60;;;;;;;14.38;100.00;98402.23;101054;1321;22891;-36
2022/09/26 07:31:03;;;;;;;9.90;8.10;;;;;;;14.62;100.00;98401.33;100883;1328;23222;-33
2022/09/26 07:33:29;;;;;;;9.80;8.20;;;;;;;14.70;100.00;98397.92;101051;1335;23085;-35
2022/09/26 07:35:55;;;;;;;8.60;5.60;;;;;;;15.04;100.00;98397.33;101063;1334;23106;-36
2022/09/26 07:38:21;;;;;;;14.00;10.90;;;;;;;15.10;100.00;98394.21;101066;1325;22502;-36
2022/09/26 07:40:53;;;;;;;5.50;4.20;;;;;;;15.22;99.93;98398.20;101039;1318;22963;-36
2022/09/26 07:43:19;;;;;;;11.10;5.30;;;;;;;15.07;97.29;98401.05;101124;1336;24488;-36
2022/09/26 07:50:44;;;;;;;8.60;7.70;;;;;;;15.15;95.16;98403.69;101048;1328;24363;-37
2022/09/26 07:53:10;;;;;;;5.40;4.90;;;;;;;14.85;95.57;98405.18;101014;1334;22864;-34
2022/09/26 07:56:04;;;;;;;6.90;6.00;;;;;;;14.62;96.62;98403.17;101002;1334;22874;-34
2022/09/26 07:58:24;;;;;;;11.20;5.00;;;;;;;14.61;97.04;98400.66;101068;1320;22865;-35
2022/09/26 08:00:50;;;;;;;4.70;3.40;;;;;;;14.66;94.87;98399.38;101061;1328;22731;-37
2022/09/26 08:03:17;;;;;;;7.30;6.30;;;;;;;14.57;95.38;98402.06;101070;1330;22741;-34
2022/09/26 08:05:42;;;;;;;6.70;5.70;;;;;;;14.42;95.15;98402.50;101085;1334;22738;-36
2022/09/26 08:08:08;;;;;;;5.70;5.00;;;;;;;14.42;95.00;98405.31;101013;1334;22706;-33
2022/09/26 08:10:34;;;;;;;6.10;4.00;;;;;;;14.46;93.95;98407.05;100991;1334;24453;-36
2022/09/26 08:13:00;;;;;;;3.40;3.10;;;;;;;14.43;93.54;98408.51;101088;1333;22732;-34
2022/09/26 08:15:26;;;;;;;7.00;5.10;;;;;;;14.52;93.91;98405.54;101097;1328;23015;-36
2022/09/26 08:17:53;;;;;;;;;;;;;;;14.53;93.85;98408.85;101055;1334;23093;-34
2022/09/26 08:20:18;;;;;;;6.10;5.10;;;;;;;14.43;94.74;98409.65;101086;1336;22994;-37
2022/09/26 08:22:44;;;;;;;8.10;6.60;;;;;;;14.60;94.93;98410.77;100891;1336;23001;-34
2022/09/26 08:25:10;;;;;;;6.50;5.10;;;;;;;14.79;93.34;98407.21;101045;1326;22803;-36
2022/09/26 08:31:32;;;;;;;6.10;4.80;;;;;;;14.81;90.14;98408.63;101076;1320;25643;-36
2022/09/26 08:33:57;;;;;;;8.40;5.50;;;;;;;14.89;89.70;98411.61;101095;1328;23034;-36
2022/09/26 08:36:23;;;;;;;9.20;5.90;;;;;;;14.91;90.17;98407.20;101060;1332;24289;-34
2022/09/26 08:38:49;;;;;;;6.40;5.10;;;;;;;14.88;91.13;98411.01;101199;1331;22741;-33
2022/09/26 08:41:20;;;;;;;5.30;3.80;;;;;;;15.08;89.74;98407.55;101261;1334;23019;-34
2022/09/26 08:43:50;;;;;;;4.10;3.30;;;;;;;15.13;87.47;98408.54;101099;1335;23087;-36
2022/09/26 08:49:13;;;;;;;9.50;5.90;;;;;;;15.06;86.95;98404.92;101059;1334;23080;-34
2022/09/26 08:51:39;;;;;;;3.20;2.80;;;;;;;15.15;87.67;98407.04;100770;1335;416620;-35
2022/09/26 08:54:11;;;;;;;6.80;6.00;;;;;;;15.20;88.04;98409.88;101092;1318;22878;-35
2022/09/26 08:56:40;;;;;;;12.50;4.30;;;;;;;15.25;87.90;98404.85;101124;1334;22877;-33
2022/09/26 08:59:11;;;;;;;5.30;4.50;;;;;;;15.21;87.61;98406.54;100863;1336;22962;-33
2022/09/26 09:01:38;;;;;;;8.50;7.00;;;;;;;15.07;88.72;98399.48;100826;1335;23234;-33
2022/09/26 09:04:09;;;;;;;7.60;6.00;;;;;;;15.07;88.99;98401.73;101075;1328;22496;-33
2022/09/26 09:06:34;;;;;;;8.20;6.80;;;;;;;15.08;87.28;98400.58;101077;1328;24367;-33
2022/09/26 09:09:00;;;;;;;6.50;5.60;;;;;;;15.13;87.16;98399.89;101064;1335;22742;-34
2022/09/26 09:11:49;;;;;;;6.30;5.70;;;;;;;15.14;85.99;98400.98;101117;1327;22751;-36
2022/09/26 09:14:19;;;;;;;7.20;5.40;;;;;;;15.22;86.07;98398.20;101089;1336;22493;-36
2022/09/26 09:16:52;;;;;;;6.70;4.70;;;;;;;15.51;85.95;98393.91;101063;1334;22502;-34
2022/09/26 09:19:41;;;;;;;5.40;4.80;;;;;;;15.86;82.80;98389.22;101065;1336;23059;-38
2022/09/26 09:22:15;;;;;;;8.70;5.40;;;;;;;16.00;84.42;98383.02;101076;1335;23084;-37
2022/09/26 09:24:49;;;;;;;8.20;5.50;;;;;;;16.45;81.77;98383.02;101053;1328;26736;-37
2022/09/26 09:27:20;;;;;;;17.80;5.30;;;;;;;16.54;81.88;98377.18;101087;1328;22742;-34
2022/09/26 09:29:55;;;;;;;7.40;4.50;;;;;;;16.95;81.68;98372.30;101066;1334;22884;-37
2022/09/26 09:32:23;;;;;;;6.60;4.40;;;;;;;17.12;79.21;98370.51;101074;1336;23845;-37
2022/09/26 09:34:48;;;;;;;13.80;5.90;;;;;;;17.27;78.76;98367.79;101102;1334;23103;-36
2022/09/26 09:37:18;;;;;;;6.20;5.60;;;;;;;17.44;76.06;98372.48;101046;1336;22485;-33
2022/09/26 09:39:45;;;;;;;6.00;4.40;;;;;;;17.60;75.59;98369.86;101120;1335;24905;-39
2022/09/26 09:42:19;;;;;;;8.00;6.80;;;;;;;17.58;74.05;98374.85;101082;1336;22484;-38
2022/09/26 09:44:46;;;;;;;;;;;;;;;17.52;73.68;98371.96;100917;1334;22871;-40
2022/09/26 09:47:14;;;;;;;5.00;4.20;;;;;;;17.31;75.34;98370.09;101062;1328;22520;-36
2022/09/26 09:49:41;;;;;;;6.70;5.20;;;;;;;17.51;75.42;98369.30;101079;1335;23912;-36
2022/09/26 09:52:15;;;;;;;5.40;4.50;;;;;;;17.47;72.75;98368.41;101077;1327;22519;-36
2022/09/26 09:54:46;;;;;;;6.50;5.90;;;;;;;17.55;75.01;98365.18;101051;1336;24257;-38
2022/09/26 09:57:15;;;;;;;7.70;5.50;;;;;;;18.06;74.28;98360.95;101074;1336;22581;-36
2022/09/26 09:59:45;;;;;;;7.90;5.60;;;;;;;18.16;72.99;98362.87;101060;1328;23192;-38
2022/09/26 10:02:18;;;;;;;6.60;4.90;;;;;;;18.27;72.50;98365.04;101057;1334;23323;-38
2022/09/26 10:04:53;;;;;;;4.70;4.30;;;;;;;18.51;69.59;98369.05;101056;1328;22716;-35
2022/09/26 10:07:19;;;;;;;5.90;4.30;;;;;;;18.29;70.11;98368.26;101003;1331;25273;-38
2022/09/26 10:09:45;;;;;;;4.40;3.70;;;;;;;18.47;69.61;98370.73;101049;1334;23250;-37
2022/09/26 10:12:12;;;;;;;6.80;5.60;;;;;;;18.48;67.11;98371.51;101133;1327;22767;-36
2022/09/26 10:14:45;;;;;;;6.60;3.70;;;;;;;18.09;67.99;98371.98;101088;1328;24437;-36
2022/09/26 10:17:10;;;;;;;3.60;3.30;;;;;;;17.99;69.04;98369.98;101052;1334;25332;-36
2022/09/26 10:19:38;;;;;;;4.50;3.00;;;;;;;18.05;68.84;98367.26;101028;1334;23201;-34
2022/09/26 10:22:08;;;;;;;4.50;3.90;;;;;;;18.34;66.89;98371.79;101047;1328;22707;-36
2022/09/26 10:24:39;;;;;;;5.70;5.10;;;;;;;17.94;68.04;98369.64;101066;1335;24420;-33
2022/09/26 10:27:12;;;;;;;4.70;4.30;;;;;;;17.86;70.34;98366.82;101060;1334;24299;-34
2022/09/26 10:29:38;;;;;;;2.30;1.70;;;;;;;18.26;68.50;98366.02;101073;1328;22615;-36
2022/09/26 10:32:03;;;;;;;4.50;3.60;;;;;;;19.15;64.04;98368.73;101000;1336;23242;-37
2022/09/26 10:34:31;;;;;;;4.70;3.80;;;;;;;18.96;64.78;98371.65;100812;1336;22865;-34
2022/09/26 10:37:11;;;;;;;3.60;3.30;;;;;;;19.26;65.94;98369.43;101088;1334;22881;-35
2022/09/26 10:42:12;;;;;;;3.90;2.80;;;;;;;20.06;60.58;98362.88;100940;1336;22738;-40
2022/09/26 10:44:38;;;;;;;2.30;2.10;;;;;;;19.95;59.10;98361.73;101028;1334;23008;-38
2022/09/26 10:47:07;;;;;;;3.80;3.10;;;;;;;19.51;59.42;98361.97;101009;1334;23226;-34
2022/09/26 10:49:38;;;;;;;5.60;3.30;;;;;;;18.58;61.54;98363.45;101109;1336;22513;-38
2022/09/26 10:52:07;;;;;;;3.30;2.70;;;;;;;18.22;63.42;98360.91;101061;1327;23239;-34
2022/09/26 10:54:40;;;;;;;2.20;1.90;;;;;;;17.60;65.58;98357.81;101115;1318;22871;-35
2022/09/26 10:57:08;;;;;;;5.90;2.30;;;;;;;17.58;68.08;98356.02;101024;1336;22545;-33
2022/09/26 10:59:38;;;;;;;4.00;2.60;;;;;;;17.52;66.88;98355.08;101067;1336;22476;-38
2022/09/26 11:02:04;;;;;;;5.40;3.70;;;;;;;17.53;65.50;98351.33;101090;1328;23106;-35
2022/09/26 11:07:00;;;;;;;5.00;3.50;;;;;;;17.22;67.55;98350.02;101084;1335;22968;-37
2022/09/26 11:09:26;;;;;;;2.50;2.20;;;;;;;17.22;68.23;98352.70;100820;1334;23465;-38
2022/09/26 11:11:52;;;;;;;3.40;2.20;;;;;;;16.98;68.15;98347.98;101043;1334;22869;-38
2022/09/26 11:14:22;;;;;;;5.00;3.70;;;;;;;16.88;68.38;98347.05;100821;1326;22758;-35
2022/09/26 11:16:47;;;;;;;3.40;3.10;;;;;;;16.83;69.38;98344.80;101041;1336;25374;-38
2022/09/26 11:19:20;;;;;;;2.20;2.00;;;;;;;16.78;69.65;98342.27;101017;1334;22742;-35
2022/09/26 11:21:50;;;;;;;;;;;;;;;16.81;69.93;98339.36;101077;1336;24305;-35
2022/09/26 11:24:21;;;;;;;3.40;2.50;;;;;;;16.91;69.57;98339.59;101126;1328;22866;-34
2022/09/26 11:26:58;;;;;;;2.30;2.10;;;;;;;17.10;69.59;98335.81;101048;1336;23795;-34
2022/09/26 11:29:32;;;;;;;3.00;2.50;;;;;;;17.45;67.89;98330.89;100977;1336;22471;-37
2022/09/26 11:31:58;;;;;;;2.40;2.10;;;;;;;17.55;67.66;98329.61;101064;1336;25409;-37
2022/09/26 11:34:26;;;;;;;3.40;2.20;;;;;;;17.57;66.39;98330.02;101031;1336;22617;-34
2022/09/26 11:37:03;;;;;;;4.00;2.30;;;;;;;17.51;65.73;98329.13;100960;1335;23474;-35
2022/09/26 11:39:36;;;;;;;2.10;1.90;;;;;;;17.56;66.22;98322.60;101143;1328;22881;-38